sensor_id;sensor_type;location;lat;lon;timestamp;P1;durP1;ratioP1;P2;durP2;ratioP2
13687;SDS011;6916;51.504;7.416;2022-09-12T00:05:12;17.00;;;14.03;;
13687;SDS011;6916;51.504;7.416;2022-09-12T00:10:41;18.20;;;14.17;;
13687;SDS011;6916;51.504;7.416;2022-09-12T00:16:04;17.43;;;13.77;;
13687;SDS011;6916;51.504;7.416;2022-09-12T00:21:27;17.20;;;14.17;;
13687;SDS011;6916;51.504;7.416;2022-09-12T00:26:51;18.97;;;14.07;;
13687;SDS011;6916;51.504;7.416;2022-09-12T00:32:13;16.77;;;14.27;;
13687;SDS011;6916;51.504;7.416;2022-09-12T00:37:35;18.40;;;13.37;;
13687;SDS011;6916;51.504;7.416;2022-09-12T00:42:57;21.03;;;13.53;;
13687;SDS011;6916;51.504;7.416;2022-09-12T00:48:21;17.03;;;13.23;;
13687;SDS011;6916;51.504;7.416;2022-09-12T00:53:47;18.87;;;12.80;;
13687;SDS011;6916;51.504;7.416;2022-09-12T00:59:11;19.17;;;13.67;;
13687;SDS011;6916;51.504;7.416;2022-09-12T01:04:36;18.03;;;12.40;;
13687;SDS011;6916;51.504;7.416;2022-09-12T01:09:59;17.63;;;13.13;;
13687;SDS011;6916;51.504;7.416;2022-09-12T01:15:21;16.40;;;12.20;;
13687;SDS011;6916;51.504;7.416;2022-09-12T01:38:04;16.50;;;12.33;;
13687;SDS011;6916;51.504;7.416;2022-09-12T01:49:11;17.70;;;12.80;;
13687;SDS011;6916;51.504;7.416;2022-09-12T02:00:18;15.87;;;12.00;;
13687;SDS011;6916;51.504;7.416;2022-09-12T02:05:42;16.30;;;12.40;;
13687;SDS011;6916;51.504;7.416;2022-09-12T02:11:08;14.10;;;11.80;;
13687;SDS011;6916;51.504;7.416;2022-09-12T02:16:41;15.87;;;12.20;;
13687;SDS011;6916;51.504;7.416;2022-09-12T02:22:06;15.60;;;11.73;;
13687;SDS011;6916;51.504;7.416;2022-09-12T02:27:35;16.23;;;11.40;;
13687;SDS011;6916;51.504;7.416;2022-09-12T02:33:02;14.97;;;11.50;;
13687;SDS011;6916;51.504;7.416;2022-09-12T02:38:37;16.70;;;10.93;;
13687;SDS011;6916;51.504;7.416;2022-09-12T02:44:05;16.57;;;11.63;;
13687;SDS011;6916;51.504;7.416;2022-09-12T02:49:27;16.63;;;11.67;;
13687;SDS011;6916;51.504;7.416;2022-09-12T02:54:49;14.73;;;11.40;;
13687;SDS011;6916;51.504;7.416;2022-09-12T03:00:12;13.47;;;10.03;;
13687;SDS011;6916;51.504;7.416;2022-09-12T03:05:39;15.80;;;12.37;;
13687;SDS011;6916;51.504;7.416;2022-09-12T03:11:12;15.00;;;10.73;;
13687;SDS011;6916;51.504;7.416;2022-09-12T03:28:04;13.23;;;10.90;;
13687;SDS011;6916;51.504;7.416;2022-09-12T03:33:28;14.73;;;11.47;;
13687;SDS011;6916;51.504;7.416;2022-09-12T03:38:51;13.87;;;10.33;;
13687;SDS011;6916;51.504;7.416;2022-09-12T03:44:13;12.90;;;10.33;;
13687;SDS011;6916;51.504;7.416;2022-09-12T03:49:35;13.57;;;10.77;;
13687;SDS011;6916;51.504;7.416;2022-09-12T03:54:57;12.63;;;10.23;;
13687;SDS011;6916;51.504;7.416;2022-09-12T04:00:19;13.60;;;10.73;;
13687;SDS011;6916;51.504;7.416;2022-09-12T04:05:41;13.23;;;9.87;;
13687;SDS011;6916;51.504;7.416;2022-09-12T04:11:04;12.87;;;10.70;;
13687;SDS011;6916;51.504;7.416;2022-09-12T04:16:27;11.83;;;9.53;;
13687;SDS011;6916;51.504;7.416;2022-09-12T04:21:50;12.40;;;9.70;;
13687;SDS011;6916;51.504;7.416;2022-09-12T04:27:12;10.70;;;9.00;;
13687;SDS011;6916;51.504;7.416;2022-09-12T04:32:34;10.97;;;9.03;;
13687;SDS011;6916;51.504;7.416;2022-09-12T04:37:56;11.93;;;9.50;;
13687;SDS011;6916;51.504;7.416;2022-09-12T04:43:18;13.30;;;9.60;;
13687;SDS011;6916;51.504;7.416;2022-09-12T04:48:41;12.50;;;9.33;;
13687;SDS011;6916;51.504;7.416;2022-09-12T04:54:05;11.70;;;9.63;;
13687;SDS011;6916;51.504;7.416;2022-09-12T04:59:28;13.73;;;9.47;;
13687;SDS011;6916;51.504;7.416;2022-09-12T05:04:50;12.73;;;8.40;;
13687;SDS011;6916;51.504;7.416;2022-09-12T05:10:13;11.90;;;9.87;;
13687;SDS011;6916;51.504;7.416;2022-09-12T05:15:35;11.57;;;9.13;;
13687;SDS011;6916;51.504;7.416;2022-09-12T05:20:58;11.13;;;8.40;;
13687;SDS011;6916;51.504;7.416;2022-09-12T05:26:21;9.00;;;7.70;;
13687;SDS011;6916;51.504;7.416;2022-09-12T05:31:43;11.50;;;8.53;;
13687;SDS011;6916;51.504;7.416;2022-09-12T05:37:06;10.60;;;8.63;;
13687;SDS011;6916;51.504;7.416;2022-09-12T05:42:28;12.87;;;8.47;;
13687;SDS011;6916;51.504;7.416;2022-09-12T05:47:50;8.97;;;7.53;;
13687;SDS011;6916;51.504;7.416;2022-09-12T05:53:13;8.40;;;7.43;;
13687;SDS011;6916;51.504;7.416;2022-09-12T05:58:36;8.30;;;7.13;;
13687;SDS011;6916;51.504;7.416;2022-09-12T06:03:59;10.63;;;7.03;;
13687;SDS011;6916;51.504;7.416;2022-09-12T06:09:23;9.60;;;7.50;;
13687;SDS011;6916;51.504;7.416;2022-09-12T06:14:46;8.00;;;6.73;;
13687;SDS011;6916;51.504;7.416;2022-09-12T06:20:08;6.93;;;6.23;;
13687;SDS011;6916;51.504;7.416;2022-09-12T06:25:30;8.60;;;6.97;;
13687;SDS011;6916;51.504;7.416;2022-09-12T06:30:52;7.57;;;6.53;;
13687;SDS011;6916;51.504;7.416;2022-09-12T06:36:19;7.57;;;6.40;;
13687;SDS011;6916;51.504;7.416;2022-09-12T06:41:48;10.17;;;7.00;;
13687;SDS011;6916;51.504;7.416;2022-09-12T06:47:11;8.17;;;6.57;;
13687;SDS011;6916;51.504;7.416;2022-09-12T06:52:33;7.70;;;5.77;;
13687;SDS011;6916;51.504;7.416;2022-09-12T06:57:56;11.40;;;7.00;;
13687;SDS011;6916;51.504;7.416;2022-09-12T07:03:18;7.10;;;6.37;;
13687;SDS011;6916;51.504;7.416;2022-09-12T07:08:41;7.73;;;6.00;;
13687;SDS011;6916;51.504;7.416;2022-09-12T07:14:03;8.68;;;5.97;;
13687;SDS011;6916;51.504;7.416;2022-09-12T07:19:27;8.85;;;6.65;;
13687;SDS011;6916;51.504;7.416;2022-09-12T07:24:49;7.13;;;5.70;;
13687;SDS011;6916;51.504;7.416;2022-09-12T07:30:11;7.03;;;5.88;;
13687;SDS011;6916;51.504;7.416;2022-09-12T07:35:33;7.45;;;5.80;;
13687;SDS011;6916;51.504;7.416;2022-09-12T07:40:55;7.97;;;6.32;;
13687;SDS011;6916;51.504;7.416;2022-09-12T07:46:17;8.70;;;5.60;;
13687;SDS011;6916;51.504;7.416;2022-09-12T07:51:39;8.77;;;6.20;;
13687;SDS011;6916;51.504;7.416;2022-09-12T07:57:01;7.82;;;6.22;;
13687;SDS011;6916;51.504;7.416;2022-09-12T08:02:24;8.52;;;6.13;;
13687;SDS011;6916;51.504;7.416;2022-09-12T08:07:46;8.83;;;7.40;;
13687;SDS011;6916;51.504;7.416;2022-09-12T08:13:08;8.75;;;6.78;;
13687;SDS011;6916;51.504;7.416;2022-09-12T08:18:30;7.38;;;6.15;;
13687;SDS011;6916;51.504;7.416;2022-09-12T08:23:57;9.23;;;6.75;;
13687;SDS011;6916;51.504;7.416;2022-09-12T08:29:24;9.18;;;6.13;;
13687;SDS011;6916;51.504;7.416;2022-09-12T08:34:46;9.45;;;6.43;;
13687;SDS011;6916;51.504;7.416;2022-09-12T08:40:13;8.13;;;6.38;;
13687;SDS011;6916;51.504;7.416;2022-09-12T08:45:37;8.50;;;6.63;;
13687;SDS011;6916;51.504;7.416;2022-09-12T08:51:16;9.65;;;6.78;;
13687;SDS011;6916;51.504;7.416;2022-09-12T08:56:40;7.60;;;5.90;;
13687;SDS011;6916;51.504;7.416;2022-09-12T09:02:02;9.43;;;6.70;;
13687;SDS011;6916;51.504;7.416;2022-09-12T09:19:51;7.57;;;6.43;;
13687;SDS011;6916;51.504;7.416;2022-09-12T09:25:28;11.57;;;6.18;;
13687;SDS011;6916;51.504;7.416;2022-09-12T09:30:58;7.07;;;5.30;;
13687;SDS011;6916;51.504;7.416;2022-09-12T09:36:21;7.32;;;5.50;;
13687;SDS011;6916;51.504;7.416;2022-09-12T09:47:34;10.43;;;5.97;;
13687;SDS011;6916;51.504;7.416;2022-09-12T09:52:56;7.22;;;5.80;;
13687;SDS011;6916;51.504;7.416;2022-09-12T09:58:27;8.13;;;5.68;;
13687;SDS011;6916;51.504;7.416;2022-09-12T10:03:54;5.13;;;4.45;;
13687;SDS011;6916;51.504;7.416;2022-09-12T10:09:18;7.63;;;5.18;;
13687;SDS011;6916;51.504;7.416;2022-09-12T10:14:55;4.65;;;4.25;;
13687;SDS011;6916;51.504;7.416;2022-09-12T10:20:33;6.38;;;3.88;;
13687;SDS011;6916;51.504;7.416;2022-09-12T10:25:58;5.25;;;3.42;;
13687;SDS011;6916;51.504;7.416;2022-09-12T10:31:23;3.65;;;3.28;;
13687;SDS011;6916;51.504;7.416;2022-09-12T10:36:51;2.72;;;2.53;;
13687;SDS011;6916;51.504;7.416;2022-09-12T10:42:15;4.03;;;2.67;;
13687;SDS011;6916;51.504;7.416;2022-09-12T10:47:38;4.45;;;2.90;;
13687;SDS011;6916;51.504;7.416;2022-09-12T11:04:08;10.23;;;4.57;;
13687;SDS011;6916;51.504;7.416;2022-09-12T11:15:41;4.20;;;2.38;;
13687;SDS011;6916;51.504;7.416;2022-09-12T11:49:28;2.92;;;2.28;;
13687;SDS011;6916;51.504;7.416;2022-09-12T11:54:59;2.17;;;1.90;;
13687;SDS011;6916;51.504;7.416;2022-09-12T12:00:29;3.60;;;2.60;;
13687;SDS011;6916;51.504;7.416;2022-09-12T12:05:55;3.60;;;2.20;;
13687;SDS011;6916;51.504;7.416;2022-09-12T12:11:29;2.35;;;1.88;;
13687;SDS011;6916;51.504;7.416;2022-09-12T12:16:53;4.97;;;2.55;;
13687;SDS011;6916;51.504;7.416;2022-09-12T12:22:16;2.60;;;2.40;;
13687;SDS011;6916;51.504;7.416;2022-09-12T12:38:37;2.47;;;2.15;;
13687;SDS011;6916;51.504;7.416;2022-09-12T12:44:01;2.30;;;1.80;;
13687;SDS011;6916;51.504;7.416;2022-09-12T13:06:40;1.92;;;1.65;;
13687;SDS011;6916;51.504;7.416;2022-09-12T13:12:09;2.22;;;2.13;;
13687;SDS011;6916;51.504;7.416;2022-09-12T13:17:45;3.08;;;1.90;;
13687;SDS011;6916;51.504;7.416;2022-09-12T13:23:18;2.10;;;1.70;;
13687;SDS011;6916;51.504;7.416;2022-09-12T13:28:42;3.83;;;2.20;;
13687;SDS011;6916;51.504;7.416;2022-09-12T13:34:04;1.55;;;1.45;;
13687;SDS011;6916;51.504;7.416;2022-09-12T13:39:34;3.95;;;1.92;;
13687;SDS011;6916;51.504;7.416;2022-09-12T13:45:11;2.20;;;1.98;;
13687;SDS011;6916;51.504;7.416;2022-09-12T13:56:18;2.72;;;1.90;;
13687;SDS011;6916;51.504;7.416;2022-09-12T14:01:42;1.95;;;1.85;;
13687;SDS011;6916;51.504;7.416;2022-09-12T14:07:09;2.67;;;2.03;;
13687;SDS011;6916;51.504;7.416;2022-09-12T14:12:37;3.08;;;1.90;;
13687;SDS011;6916;51.504;7.416;2022-09-12T14:18:03;2.15;;;1.85;;
13687;SDS011;6916;51.504;7.416;2022-09-12T14:23:27;3.05;;;1.92;;
13687;SDS011;6916;51.504;7.416;2022-09-12T14:28:50;1.77;;;1.35;;
13687;SDS011;6916;51.504;7.416;2022-09-12T14:34:13;2.83;;;2.28;;
13687;SDS011;6916;51.504;7.416;2022-09-12T14:39:40;1.40;;;1.30;;
13687;SDS011;6916;51.504;7.416;2022-09-12T14:45:09;2.03;;;1.92;;
13687;SDS011;6916;51.504;7.416;2022-09-12T14:50:36;2.28;;;2.10;;
13687;SDS011;6916;51.504;7.416;2022-09-12T14:56:12;2.00;;;1.88;;
13687;SDS011;6916;51.504;7.416;2022-09-12T15:01:34;1.83;;;1.67;;
13687;SDS011;6916;51.504;7.416;2022-09-12T15:06:56;2.15;;;1.88;;
13687;SDS011;6916;51.504;7.416;2022-09-12T15:12:18;1.90;;;1.50;;
13687;SDS011;6916;51.504;7.416;2022-09-12T15:17:41;3.42;;;1.65;;
13687;SDS011;6916;51.504;7.416;2022-09-12T15:23:03;1.73;;;1.63;;
13687;SDS011;6916;51.504;7.416;2022-09-12T15:28:27;2.97;;;1.70;;
13687;SDS011;6916;51.504;7.416;2022-09-12T15:33:50;1.67;;;1.58;;
13687;SDS011;6916;51.504;7.416;2022-09-12T15:39:13;2.35;;;1.60;;
13687;SDS011;6916;51.504;7.416;2022-09-12T15:44:35;1.42;;;1.33;;
13687;SDS011;6916;51.504;7.416;2022-09-12T15:49:57;1.90;;;1.75;;
13687;SDS011;6916;51.504;7.416;2022-09-12T15:55:20;2.53;;;1.65;;
13687;SDS011;6916;51.504;7.416;2022-09-12T16:00:44;1.63;;;1.52;;
13687;SDS011;6916;51.504;7.416;2022-09-12T16:06:06;1.80;;;1.20;;
13687;SDS011;6916;51.504;7.416;2022-09-12T16:11:30;1.80;;;1.67;;
13687;SDS011;6916;51.504;7.416;2022-09-12T16:16:52;1.80;;;1.67;;
13687;SDS011;6916;51.504;7.416;2022-09-12T16:22:15;1.95;;;1.60;;
13687;SDS011;6916;51.504;7.416;2022-09-12T16:27:37;1.58;;;1.48;;
13687;SDS011;6916;51.504;7.416;2022-09-12T16:32:59;1.60;;;1.40;;
13687;SDS011;6916;51.504;7.416;2022-09-12T16:38:22;2.08;;;1.33;;
13687;SDS011;6916;51.504;7.416;2022-09-12T16:43:44;3.70;;;1.52;;
13687;SDS011;6916;51.504;7.416;2022-09-12T16:49:06;1.70;;;1.60;;
13687;SDS011;6916;51.504;7.416;2022-09-12T16:54:28;5.15;;;1.50;;
13687;SDS011;6916;51.504;7.416;2022-09-12T16:59:50;1.65;;;1.55;;
13687;SDS011;6916;51.504;7.416;2022-09-12T17:05:13;2.13;;;1.80;;
13687;SDS011;6916;51.504;7.416;2022-09-12T17:10:39;2.97;;;1.60;;
13687;SDS011;6916;51.504;7.416;2022-09-12T17:16:03;3.00;;;2.70;;
13687;SDS011;6916;51.504;7.416;2022-09-12T17:21:29;6.35;;;4.38;;
13687;SDS011;6916;51.504;7.416;2022-09-12T17:26:52;6.28;;;4.15;;
13687;SDS011;6916;51.504;7.416;2022-09-12T17:32:14;7.28;;;5.10;;
13687;SDS011;6916;51.504;7.416;2022-09-12T17:37:36;4.65;;;4.25;;
13687;SDS011;6916;51.504;7.416;2022-09-12T17:42:58;2.50;;;2.30;;
13687;SDS011;6916;51.504;7.416;2022-09-12T17:48:22;3.03;;;2.33;;
13687;SDS011;6916;51.504;7.416;2022-09-12T17:53:44;4.25;;;2.53;;
13687;SDS011;6916;51.504;7.416;2022-09-12T17:59:07;5.35;;;2.38;;
13687;SDS011;6916;51.504;7.416;2022-09-12T18:04:32;5.82;;;2.50;;
13687;SDS011;6916;51.504;7.416;2022-09-12T18:09:54;3.78;;;2.42;;
13687;SDS011;6916;51.504;7.416;2022-09-12T18:15:16;2.45;;;2.25;;
13687;SDS011;6916;51.504;7.416;2022-09-12T18:20:38;2.42;;;2.22;;
13687;SDS011;6916;51.504;7.416;2022-09-12T18:26:06;2.97;;;2.38;;
13687;SDS011;6916;51.504;7.416;2022-09-12T18:31:29;2.97;;;2.58;;
13687;SDS011;6916;51.504;7.416;2022-09-12T18:36:51;4.07;;;2.22;;
13687;SDS011;6916;51.504;7.416;2022-09-12T18:42:16;6.88;;;3.92;;
13687;SDS011;6916;51.504;7.416;2022-09-12T18:47:38;6.03;;;3.35;;
13687;SDS011;6916;51.504;7.416;2022-09-12T18:53:01;6.95;;;3.47;;
13687;SDS011;6916;51.504;7.416;2022-09-12T18:58:23;4.03;;;2.97;;
13687;SDS011;6916;51.504;7.416;2022-09-12T19:03:45;4.40;;;3.20;;
13687;SDS011;6916;51.504;7.416;2022-09-12T19:09:08;6.07;;;4.57;;
13687;SDS011;6916;51.504;7.416;2022-09-12T19:14:30;5.50;;;4.03;;
13687;SDS011;6916;51.504;7.416;2022-09-12T19:19:53;4.93;;;3.80;;
13687;SDS011;6916;51.504;7.416;2022-09-12T19:25:16;3.60;;;3.28;;
13687;SDS011;6916;51.504;7.416;2022-09-12T19:30:44;5.22;;;2.97;;
13687;SDS011;6916;51.504;7.416;2022-09-12T19:36:08;5.07;;;3.85;;
13687;SDS011;6916;51.504;7.416;2022-09-12T19:41:31;4.43;;;3.22;;
13687;SDS011;6916;51.504;7.416;2022-09-12T19:46:54;4.45;;;3.53;;
13687;SDS011;6916;51.504;7.416;2022-09-12T19:52:16;6.53;;;3.38;;
13687;SDS011;6916;51.504;7.416;2022-09-12T19:57:38;3.85;;;3.45;;
13687;SDS011;6916;51.504;7.416;2022-09-12T20:03:00;4.60;;;3.08;;
13687;SDS011;6916;51.504;7.416;2022-09-12T20:08:23;4.10;;;3.67;;
13687;SDS011;6916;51.504;7.416;2022-09-12T20:13:45;3.83;;;3.53;;
13687;SDS011;6916;51.504;7.416;2022-09-12T20:19:08;3.30;;;2.90;;
13687;SDS011;6916;51.504;7.416;2022-09-12T20:24:30;5.97;;;3.72;;
13687;SDS011;6916;51.504;7.416;2022-09-12T20:29:53;4.78;;;4.00;;
13687;SDS011;6916;51.504;7.416;2022-09-12T20:35:15;4.85;;;3.70;;
13687;SDS011;6916;51.504;7.416;2022-09-12T20:40:38;4.05;;;3.05;;
13687;SDS011;6916;51.504;7.416;2022-09-12T20:46:09;3.85;;;3.10;;
13687;SDS011;6916;51.504;7.416;2022-09-12T20:51:32;4.43;;;3.00;;
13687;SDS011;6916;51.504;7.416;2022-09-12T20:56:54;4.18;;;2.63;;
13687;SDS011;6916;51.504;7.416;2022-09-12T21:02:16;4.25;;;2.97;;
13687;SDS011;6916;51.504;7.416;2022-09-12T21:07:39;2.30;;;2.10;;
13687;SDS011;6916;51.504;7.416;2022-09-12T21:13:01;2.45;;;2.25;;
13687;SDS011;6916;51.504;7.416;2022-09-12T21:18:23;3.25;;;2.42;;
13687;SDS011;6916;51.504;7.416;2022-09-12T21:23:45;2.88;;;2.33;;
13687;SDS011;6916;51.504;7.416;2022-09-12T21:29:07;3.75;;;2.45;;
13687;SDS011;6916;51.504;7.416;2022-09-12T21:34:29;3.00;;;1.98;;
13687;SDS011;6916;51.504;7.416;2022-09-12T21:39:51;4.63;;;2.10;;
13687;SDS011;6916;51.504;7.416;2022-09-12T21:45:14;2.40;;;2.20;;
13687;SDS011;6916;51.504;7.416;2022-09-12T21:50:36;2.00;;;1.80;;
13687;SDS011;6916;51.504;7.416;2022-09-12T21:56:02;2.20;;;2.10;;
13687;SDS011;6916;51.504;7.416;2022-09-12T22:01:26;2.50;;;2.08;;
13687;SDS011;6916;51.504;7.416;2022-09-12T22:06:48;1.98;;;1.88;;
13687;SDS011;6916;51.504;7.416;2022-09-12T22:12:11;2.58;;;2.10;;
13687;SDS011;6916;51.504;7.416;2022-09-12T22:17:33;4.25;;;2.08;;
13687;SDS011;6916;51.504;7.416;2022-09-12T22:22:55;3.28;;;2.25;;
13687;SDS011;6916;51.504;7.416;2022-09-12T22:28:36;2.15;;;2.05;;
13687;SDS011;6916;51.504;7.416;2022-09-12T22:33:59;2.35;;;2.15;;
13687;SDS011;6916;51.504;7.416;2022-09-12T22:39:21;2.78;;;2.17;;
13687;SDS011;6916;51.504;7.416;2022-09-12T22:44:44;2.22;;;2.03;;
13687;SDS011;6916;51.504;7.416;2022-09-12T22:50:06;2.50;;;2.28;;
13687;SDS011;6916;51.504;7.416;2022-09-12T22:55:28;2.78;;;2.55;;
13687;SDS011;6916;51.504;7.416;2022-09-12T23:00:50;2.17;;;1.83;;
13687;SDS011;6916;51.504;7.416;2022-09-12T23:06:13;2.70;;;2.40;;
13687;SDS011;6916;51.504;7.416;2022-09-12T23:11:35;2.67;;;2.00;;
13687;SDS011;6916;51.504;7.416;2022-09-12T23:16:57;2.20;;;2.00;;
13687;SDS011;6916;51.504;7.416;2022-09-12T23:22:19;2.42;;;2.08;;
13687;SDS011;6916;51.504;7.416;2022-09-12T23:27:42;1.95;;;1.75;;
13687;SDS011;6916;51.504;7.416;2022-09-12T23:33:04;3.00;;;2.15;;
13687;SDS011;6916;51.504;7.416;2022-09-12T23:38:27;2.67;;;1.85;;
13687;SDS011;6916;51.504;7.416;2022-09-12T23:43:53;2.75;;;1.92;;
13687;SDS011;6916;51.504;7.416;2022-09-12T23:49:15;2.33;;;2.08;;
13687;SDS011;6916;51.504;7.416;2022-09-12T23:54:37;2.15;;;1.70;;
